Winnipeg James Armstrong Richardson International Airport
CYWG : now visible

Airfield :











YOU CAN JOIN US ON...

 
LOGIN :

Register | Disclaimer

   EN    FR    IT 

 









Legend :    VFR   Marginal VFR   IFR   Intensive IFR   Very Intensive IFR
Visi :
Ceiling :
>= 8 km
>= 3000ft
5 to 8 km
1000 to 3000 ft
1500m to 5 km
500 to 1000 ft
800 to 1500m
200 to 500 ft
< 800m
< 200 ft
Symbols :   Thunderstorms  Fog  Heavy snow  Heavy precipitations  Wind > 20 kt






- Airport Elevation : 783 ft
- IATA code : YWG


CYWG - Winnipeg James Armstrong Richardson International

CURRENT METAR :
  • 200800Z 03017G25KT 6SM -RA BR SCT005 OVC014 07/06 A2925 RMK SF4ST4 SLP912 DENSITY ALT 800FT

EXPIRED METARs :
  • 200700Z 03019G26KT 6SM RA BR OVC007 08/08 A2924 RMK SF8 SLP907 DENSITY ALT 900FT
  • 200600Z 04016KT 5SM -RA BR OVC005 08/08 A2925 RMK SF8 /R022/ SLP911 DENSITY ALT 1000FT
  • 200544Z 03012G18KT 5SM RA BR OVC005 08/08 A2926 RMK SF8 SLP914 DENSITY ALT 1000FT

TAF TAF CYWG
Valid from the 20 at 06:00 until the 21 at 06:00 UTC


200540Z 2006/2106 02015G25KT P6SM -RA SCT008 OVC015
TEMPO 2006/2013 4SM -SHRA BR OVC005
FM201300 01020G30KT P6SM -SHRA BKN020 OVC080
FM201500 36020G35KT P6SM BKN025 OVC100
FM202000 35018G28KT P6SM BKN030 OVC140
FM210200 33012KT P6SM BKN050 RMK NXT FCST BY 201200Z
CZWG FIR / North America



MET'MAP, your aeronautical weather chart ! - Copyright ORBIFLY December 2007 - Disclaimer

ORBIFLY MET'MAP TEAM :

Programming & Development : Alexandra Zaïnal
Original concept : Baudouin d'Aumeries
Technical & hardware support : Manuel Goepfert
Assistance : Marc-Olivier Méhu

Contact : metmap@orbifly.com




SOURCES & CREDITS :

   NOAA       Earth
Advisory